createdAt,value
2023-04-28T00:00:44.139Z,99105.02
2023-04-28T00:05:15.243Z,99101.27
2023-04-28T00:08:18.265Z,99097.05
2023-04-28T00:11:20.506Z,99097.08
2023-04-28T00:14:23.285Z,99096.28
2023-04-28T00:17:29.399Z,99103.94
2023-04-28T00:20:31.679Z,99111.45
2023-04-28T00:23:33.859Z,99106.58
2023-04-28T00:26:36.391Z,99111.23
2023-04-28T00:29:38.697Z,99114.02
2023-04-28T00:32:40.904Z,99120.44
2023-04-28T00:35:43.186Z,99121.87
2023-04-28T00:38:45.581Z,99125.43
2023-04-28T00:41:47.900Z,99126.92
2023-04-28T00:44:51.095Z,99127.26
2023-04-28T00:47:55.433Z,99131.25
2023-04-28T00:50:58.009Z,99130.40
2023-04-28T00:54:01.020Z,99135.35
2023-04-28T00:57:03.286Z,99137.91
2023-04-28T01:00:07.978Z,99147.98
2023-04-28T01:03:11.722Z,99151.61
2023-04-28T01:06:16.141Z,99155.39
2023-04-28T01:09:20.447Z,99162.94
2023-04-28T01:12:23.529Z,99163.59
2023-04-28T01:15:29.159Z,99163.06
2023-04-28T01:18:31.932Z,99159.16
2023-04-28T01:21:34.328Z,99163.98
2023-04-28T01:24:42.749Z,99166.23
2023-04-28T01:27:44.801Z,99165.16
2023-04-28T01:30:47.192Z,99170.02
2023-04-28T01:33:49.160Z,99171.27
2023-04-28T01:36:52.133Z,99169.80
2023-04-28T01:39:54.114Z,99172.61
2023-04-28T01:42:56.696Z,99177.08
2023-04-28T01:45:59.706Z,99177.28
2023-04-28T02:04:55.921Z,99164.91
2023-04-28T02:07:58.698Z,99170.29
2023-04-28T02:11:02.254Z,99171.98
2023-04-28T02:14:04.659Z,99182.22
2023-04-28T02:17:07.134Z,99180.14
2023-04-28T02:20:10.226Z,99180.16
2023-04-28T02:23:12.433Z,99189.46
2023-04-28T02:26:14.874Z,99184.59
2023-04-28T02:29:17.487Z,99184.60
2023-04-28T02:32:19.946Z,99183.19
2023-04-28T02:35:22.136Z,99184.10
2023-04-28T02:38:24.372Z,99177.42
2023-04-28T02:41:27.171Z,99180.08
2023-04-28T02:44:29.637Z,99181.36
2023-04-28T02:47:31.929Z,99184.21
2023-04-28T02:50:34.569Z,99188.70
2023-04-28T02:53:37.088Z,99194.33
2023-04-28T02:56:41.313Z,99193.88
2023-04-28T02:59:43.520Z,99195.85
2023-04-28T03:02:45.825Z,99197.90
2023-04-28T03:05:48.218Z,99202.27
2023-04-28T03:08:51.626Z,99207.84
2023-04-28T03:11:53.841Z,99218.13
2023-04-28T03:14:56.506Z,99223.62
2023-04-28T03:18:00.002Z,99228.41
2023-04-28T03:21:03.279Z,99231.48
2023-04-28T03:24:06.291Z,99237.83
2023-04-28T03:27:08.774Z,99241.95
2023-04-28T03:30:12.580Z,99250.83
2023-04-28T03:33:14.741Z,99250.34
2023-04-28T03:36:17.114Z,99253.17
2023-04-28T03:39:19.371Z,99258.02
2023-04-28T03:42:21.647Z,99263.64
2023-04-28T03:45:47.392Z,99269.51
2023-04-28T03:48:51.241Z,99271.90
2023-04-28T03:51:54.450Z,99271.55
2023-04-28T03:54:56.934Z,99273.58
2023-04-28T03:57:59.623Z,99273.21
2023-04-28T04:05:14.979Z,99279.91
2023-04-28T04:08:17.738Z,99279.88
2023-04-28T04:11:19.668Z,99277.52
2023-04-28T04:14:22.268Z,99275.13
2023-04-28T04:17:24.433Z,99279.05
2023-04-28T04:20:26.479Z,99280.35
2023-04-28T04:23:28.331Z,99281.38
2023-04-28T04:26:30.566Z,99278.59
2023-04-28T04:29:33.127Z,99284.31
2023-04-28T04:32:37.112Z,99285.25
2023-04-28T04:35:39.244Z,99288.48
2023-04-28T04:38:41.198Z,99287.17
2023-04-28T04:41:48.024Z,99287.31
2023-04-28T04:45:08.055Z,99290.63
2023-04-28T04:48:11.078Z,99289.73
2023-04-28T04:51:13.006Z,99289.44
2023-04-28T04:54:15.184Z,99286.03
2023-04-28T04:57:17.413Z,99284.89
2023-04-28T05:00:41.978Z,99286.48
2023-04-28T05:03:45.594Z,99292.52
2023-04-28T05:06:47.892Z,99293.63
2023-04-28T05:13:35.784Z,99300.11
2023-04-28T05:16:39.624Z,99307.00
2023-04-28T05:19:48.180Z,99300.00
2023-04-28T05:22:51.298Z,99292.26
2023-04-28T05:25:53.576Z,99298.03
2023-04-28T05:28:55.883Z,99297.52
2023-04-28T05:31:58.184Z,99294.11
2023-04-28T05:35:00.772Z,99296.83
2023-04-28T05:38:04.099Z,99301.38
2023-04-28T05:41:06.719Z,99297.48
2023-04-28T05:44:08.903Z,99300.38
2023-04-28T05:47:11.173Z,99303.54
2023-04-28T05:50:13.874Z,99303.92
2023-04-28T05:53:16.236Z,99311.84
2023-04-28T05:56:19.168Z,99306.20
2023-04-28T05:59:22.748Z,99306.98
2023-04-28T06:04:58.148Z,99302.06
2023-04-28T06:08:00.848Z,99303.92
2023-04-28T06:11:03.443Z,99303.41
2023-04-28T06:14:06.341Z,99300.73
2023-04-28T06:17:09.278Z,99297.05
2023-04-28T06:20:16.464Z,99299.86
2023-04-28T06:23:19.223Z,99301.36
2023-04-28T06:26:23.284Z,99298.54
2023-04-28T06:29:25.920Z,99300.52
2023-04-28T06:32:28.216Z,99305.65
2023-04-28T06:35:30.453Z,99313.41
2023-04-28T06:38:32.987Z,99306.91
2023-04-28T06:41:34.986Z,99320.56
2023-04-28T06:44:38.406Z,99308.95
2023-04-28T06:47:41.018Z,99306.06
2023-04-28T06:50:45.913Z,99314.23
2023-04-28T06:53:53.254Z,99317.59
2023-04-28T06:56:56.820Z,99319.27
2023-04-28T06:59:59.921Z,99320.52
2023-04-28T07:03:02.223Z,99314.40
2023-04-28T07:06:05.620Z,99317.73
2023-04-28T07:09:08.333Z,99313.08
2023-04-28T07:12:10.656Z,99316.98
2023-04-28T07:15:13.331Z,99322.02
2023-04-28T07:18:16.239Z,99327.84
2023-04-28T07:21:18.680Z,99326.02
2023-04-28T07:24:21.009Z,99339.52
2023-04-28T07:27:23.762Z,99345.20
2023-04-28T07:30:28.403Z,99348.90
2023-04-28T07:33:30.891Z,99362.00
2023-04-28T07:36:33.241Z,99333.53
2023-04-28T07:39:36.007Z,99333.00
2023-04-28T07:42:38.217Z,99337.14
2023-04-28T07:45:41.162Z,99339.88
2023-04-28T07:48:43.440Z,99350.34
2023-04-28T07:51:45.508Z,99334.50
2023-04-28T07:54:47.890Z,99341.90
2023-04-28T07:57:50.086Z,99336.63
2023-04-28T08:00:52.877Z,99342.77
2023-04-28T08:03:55.471Z,99342.54
2023-04-28T08:06:57.992Z,99346.90
2023-04-28T08:10:00.284Z,99338.20
2023-04-28T08:13:03.168Z,99334.50
2023-04-28T08:16:05.900Z,99323.26
2023-04-28T08:19:08.309Z,99324.17
2023-04-28T08:22:11.038Z,99325.50
2023-04-28T08:25:13.232Z,99341.86
2023-04-28T08:28:15.238Z,99337.25
2023-04-28T08:31:17.493Z,99340.84
2023-04-28T08:34:19.894Z,99356.27
2023-04-28T08:37:22.172Z,99348.39
2023-04-28T08:40:25.463Z,99334.00
2023-04-28T08:43:28.784Z,99350.42
2023-04-28T08:46:32.771Z,99345.55
2023-04-28T08:49:38.621Z,99342.89
2023-04-28T08:52:43.255Z,99336.16
2023-04-28T08:55:46.411Z,99348.63
2023-04-28T08:58:49.740Z,99345.96
2023-04-28T09:01:52.169Z,99340.71
2023-04-28T09:04:54.463Z,99336.20
2023-04-28T09:07:57.181Z,99345.81
2023-04-28T09:11:09.900Z,99347.41
2023-04-28T09:14:13.003Z,99337.26
2023-04-28T09:17:16.786Z,99328.77
2023-04-28T09:20:30.329Z,99332.35
2023-04-28T09:23:36.540Z,99348.31
2023-04-28T09:26:52.156Z,99358.46
2023-04-28T09:29:56.170Z,99355.24
2023-04-28T09:33:06.128Z,99351.35
2023-04-28T09:36:08.289Z,99341.89
2023-04-28T09:39:10.315Z,99343.08
2023-04-28T09:42:32.804Z,99335.05
2023-04-28T09:45:42.791Z,99324.77
2023-04-28T09:48:44.961Z,99335.87
2023-04-28T09:51:47.133Z,99329.27
2023-04-28T09:54:55.517Z,99325.02
2023-04-28T09:58:03.664Z,99326.30
2023-04-28T10:04:56.849Z,99331.14
2023-04-28T10:08:02.620Z,99327.92
2023-04-28T10:11:05.186Z,99325.70
2023-04-28T10:14:07.570Z,99334.26
2023-04-28T10:17:10.551Z,99317.43
2023-04-28T10:20:15.807Z,99310.61
2023-04-28T10:23:17.686Z,99313.52
2023-04-28T10:40:38.303Z,99333.83
2023-04-28T10:43:41.452Z,99333.30
2023-04-28T10:47:03.487Z,99335.95
2023-04-28T10:50:10.065Z,99326.89
2023-04-28T10:53:12.238Z,99331.42
2023-04-28T10:56:16.268Z,99331.66
2023-04-28T10:59:26.478Z,99335.83
2023-04-28T11:02:43.426Z,99335.05
2023-04-28T11:06:15.897Z,99328.79
2023-04-28T11:09:18.305Z,99320.92
2023-04-28T11:12:20.276Z,99322.87
2023-04-28T11:15:22.486Z,99320.13
2023-04-28T11:18:26.503Z,99317.05
2023-04-28T11:21:28.505Z,99315.84
2023-04-28T11:24:31.104Z,99315.14
2023-04-28T11:27:34.059Z,99317.59
2023-04-28T11:30:37.149Z,99312.42
2023-04-28T11:33:40.962Z,99316.48
2023-04-28T11:36:42.824Z,99303.08
2023-04-28T11:39:45.201Z,99301.09
2023-04-28T11:42:50.484Z,99301.70
2023-04-28T11:45:52.686Z,99304.20
2023-04-28T11:49:03.877Z,99302.29
2023-04-28T11:52:08.130Z,99308.14
2023-04-28T11:55:16.635Z,99310.27
2023-04-28T11:58:26.995Z,99313.56
2023-04-28T12:01:29.064Z,99307.83
2023-04-28T12:04:39.689Z,99304.60
2023-04-28T12:07:43.907Z,99293.29
2023-04-28T12:11:09.898Z,99297.02
2023-04-28T12:14:11.846Z,99279.20
2023-04-28T12:17:24.636Z,99292.33
2023-04-28T12:20:38.107Z,99291.20
2023-04-28T14:04:58.143Z,99268.63
2023-04-28T14:08:01.978Z,99270.35
2023-04-28T14:11:04.028Z,99275.64
2023-04-28T14:14:06.649Z,99259.59
2023-04-28T14:17:09.492Z,99253.36
2023-04-28T14:20:11.793Z,99254.57
2023-04-28T14:26:49.850Z,99264.66
2023-04-28T14:29:51.896Z,99257.95
2023-04-28T14:32:54.053Z,99251.00
2023-04-28T14:35:56.232Z,99251.67
2023-04-28T14:38:59.008Z,99248.90
2023-04-28T14:42:01.067Z,99253.91
2023-04-28T14:45:05.389Z,99253.23
2023-04-28T14:48:08.135Z,99252.14
2023-04-28T14:51:10.778Z,99250.15
2023-04-28T14:54:12.883Z,99252.12
2023-04-28T14:57:15.299Z,99258.54
2023-04-28T15:00:17.989Z,99256.33
2023-04-28T15:03:20.608Z,99255.20
2023-04-28T15:06:23.030Z,99262.24
2023-04-28T15:09:25.226Z,99256.54
2023-04-28T15:12:30.693Z,99260.48
2023-04-28T15:15:32.831Z,99256.60
2023-04-28T15:18:34.797Z,99260.30
2023-04-28T15:21:37.375Z,99261.13
2023-04-28T15:24:39.962Z,99263.33
2023-04-28T15:27:42.147Z,99263.91
2023-04-28T15:30:44.189Z,99266.66
2023-04-28T15:33:46.255Z,99267.05
2023-04-28T15:36:48.329Z,99259.05
2023-04-28T15:39:50.728Z,99269.84
2023-04-28T15:42:53.514Z,99273.95
2023-04-28T15:45:55.939Z,99275.32
2023-04-28T15:48:58.357Z,99271.98
2023-04-28T15:52:02.064Z,99276.91
2023-04-28T15:55:04.774Z,99278.18
2023-04-28T15:58:08.440Z,99286.92
2023-04-28T16:01:10.958Z,99286.05
2023-04-28T16:04:13.470Z,99284.23
2023-04-28T16:07:15.808Z,99279.90
2023-04-28T16:10:18.488Z,99283.98
2023-04-28T16:13:20.840Z,99295.09
2023-04-28T16:16:23.640Z,99293.76
2023-04-28T16:19:26.429Z,99298.94
2023-04-28T16:22:28.783Z,99304.00
2023-04-28T16:25:31.062Z,99297.46
2023-04-28T16:28:33.231Z,99303.67
2023-04-28T16:31:35.395Z,99298.39
2023-04-28T16:34:38.514Z,99297.17
2023-04-28T16:37:41.345Z,99303.88
2023-04-28T16:40:43.872Z,99302.61
2023-04-28T16:43:46.324Z,99301.25
2023-04-28T16:46:49.234Z,99304.83
2023-04-28T16:49:51.964Z,99309.88
2023-04-28T16:52:55.506Z,99313.77
2023-04-28T16:55:57.481Z,99316.69
2023-04-28T16:58:59.641Z,99318.98
2023-04-28T17:02:04.036Z,99319.30
2023-04-28T17:05:08.125Z,99316.65
2023-04-28T17:08:10.588Z,99319.84
2023-04-28T17:11:16.830Z,99322.71
2023-04-28T17:14:19.097Z,99328.14
2023-04-28T17:17:21.755Z,99328.36
2023-04-28T17:20:24.892Z,99332.64
2023-04-28T17:23:28.218Z,99335.98
2023-04-28T17:26:31.351Z,99340.77
2023-04-28T17:29:33.279Z,99345.02
2023-04-28T17:32:36.725Z,99342.09
2023-04-28T17:35:38.930Z,99349.15
2023-04-28T17:38:41.047Z,99350.85
2023-04-28T17:41:43.382Z,99349.22
2023-04-28T17:44:45.355Z,99348.71
2023-04-28T17:47:47.350Z,99352.08
2023-04-28T17:50:49.341Z,99352.05
2023-04-28T17:53:51.509Z,99358.64
2023-04-28T17:56:55.954Z,99354.75
2023-04-28T17:59:58.229Z,99356.91
2023-04-28T18:04:57.197Z,99359.15
2023-04-28T18:08:03.826Z,99360.27
2023-04-28T18:11:07.274Z,99362.23
2023-04-28T18:14:10.421Z,99365.92
2023-04-28T18:17:12.485Z,99363.03
2023-04-28T18:20:14.536Z,99367.51
2023-04-28T18:23:16.591Z,99369.67
2023-04-28T18:26:18.748Z,99369.80
2023-04-28T18:29:22.625Z,99364.66
2023-04-28T18:32:24.640Z,99366.20
2023-04-28T18:35:26.702Z,99364.73
2023-04-28T18:38:31.116Z,99366.27
2023-04-28T18:41:34.246Z,99364.00
2023-04-28T18:44:37.167Z,99365.36
2023-04-28T18:47:39.883Z,99369.77
2023-04-28T18:50:43.055Z,99369.94
2023-04-28T18:53:46.617Z,99368.55
2023-04-28T18:56:48.911Z,99366.95
2023-04-28T18:59:51.260Z,99362.79
2023-04-28T19:02:53.619Z,99363.95
2023-04-28T19:05:56.100Z,99367.27
2023-04-28T19:08:58.896Z,99370.09
2023-04-28T19:12:01.251Z,99372.58
2023-04-28T19:15:03.875Z,99373.95
2023-04-28T19:18:07.032Z,99373.40
2023-04-28T19:21:12.478Z,99373.08
2023-04-28T19:24:14.966Z,99370.17
2023-04-28T19:27:17.550Z,99378.41
2023-04-28T19:30:21.362Z,99380.45
2023-04-28T19:33:27.136Z,99377.55
2023-04-28T19:36:33.323Z,99378.17
2023-04-28T19:39:35.558Z,99382.64
2023-04-28T19:42:38.023Z,99377.67
2023-04-28T19:45:41.044Z,99380.83
2023-04-28T19:48:45.335Z,99376.98
2023-04-28T19:51:47.843Z,99378.48
2023-04-28T19:54:53.684Z,99380.12
2023-04-28T19:57:58.705Z,99381.73
2023-04-28T20:01:02.720Z,99379.23
2023-04-28T20:04:05.064Z,99383.15
2023-04-28T20:07:08.804Z,99385.59
2023-04-28T20:10:12.188Z,99382.91
2023-04-28T20:13:15.384Z,99379.14
2023-04-28T20:16:20.472Z,99382.24
2023-04-28T20:19:22.629Z,99380.63
2023-04-28T20:22:24.656Z,99382.70
2023-04-28T20:25:28.070Z,99383.29
2023-04-28T20:28:30.380Z,99380.86
2023-04-28T20:31:33.023Z,99382.02
2023-04-28T20:34:36.621Z,99384.39
2023-04-28T20:37:39.004Z,99387.95
2023-04-28T20:40:41.266Z,99388.69
2023-04-28T20:43:43.330Z,99394.46
2023-04-28T20:46:45.651Z,99396.55
2023-04-28T20:49:47.821Z,99395.14
2023-04-28T20:52:50.256Z,99395.42
2023-04-28T20:55:52.324Z,99401.84
2023-04-28T20:58:55.833Z,99402.23
2023-04-28T21:01:58.147Z,99405.47
2023-04-28T21:05:00.212Z,99404.79
2023-04-28T21:08:02.306Z,99405.17
2023-04-28T21:11:04.299Z,99403.08
2023-04-28T21:14:06.572Z,99398.09
2023-04-28T21:17:09.153Z,99399.60
2023-04-28T21:20:12.257Z,99394.89
2023-04-28T21:23:14.445Z,99394.13
2023-04-28T21:26:16.513Z,99392.30
2023-04-28T21:29:18.835Z,99393.16
2023-04-28T21:32:20.970Z,99400.65
2023-04-28T21:35:23.198Z,99401.09
2023-04-28T21:38:27.042Z,99396.34
2023-04-28T21:41:29.071Z,99392.75
2023-04-28T21:44:31.048Z,99388.48
2023-04-28T21:47:33.448Z,99389.25
2023-04-28T21:50:36.531Z,99385.92
2023-04-28T21:53:38.588Z,99384.82
2023-04-28T21:56:40.950Z,99386.95
2023-04-28T21:59:42.939Z,99386.37
2023-04-28T22:04:57.804Z,99390.38
2023-04-28T22:08:01.711Z,99381.90
2023-04-28T22:11:04.313Z,99381.02
2023-04-28T22:14:06.892Z,99382.32
2023-04-28T22:17:08.939Z,99378.33
2023-04-28T22:20:12.038Z,99377.90
2023-04-28T22:23:14.317Z,99375.11
2023-04-28T22:26:16.383Z,99373.98
2023-04-28T22:29:19.266Z,99374.10
2023-04-28T22:32:21.673Z,99373.70
2023-04-28T22:35:24.246Z,99379.66
2023-04-28T22:38:26.559Z,99378.39
2023-04-28T22:41:29.404Z,99378.39
2023-04-28T22:44:32.924Z,99373.89
2023-04-28T22:47:35.514Z,99375.08
2023-04-28T22:50:38.996Z,99368.45
2023-04-28T22:53:41.242Z,99368.13
2023-04-28T22:56:43.407Z,99361.59
2023-04-28T22:59:45.989Z,99362.09
2023-04-28T23:02:48.499Z,99359.02
2023-04-28T23:05:51.783Z,99361.67
2023-04-28T23:08:54.066Z,99354.51
2023-04-28T23:11:57.169Z,99350.23
2023-04-28T23:15:00.316Z,99350.05
2023-04-28T23:18:02.946Z,99347.80
2023-04-28T23:21:05.609Z,99346.34
2023-04-28T23:24:11.169Z,99346.48
2023-04-28T23:27:13.341Z,99345.89
2023-04-28T23:30:15.945Z,99344.20
2023-04-28T23:33:18.183Z,99344.80
2023-04-28T23:36:20.546Z,99345.91
2023-04-28T23:39:22.829Z,99348.92
2023-04-28T23:42:26.229Z,99351.55
2023-04-28T23:45:28.477Z,99354.41
2023-04-28T23:48:30.880Z,99355.67
2023-04-28T23:51:34.578Z,99351.55
2023-04-28T23:54:37.159Z,99347.58
2023-04-28T23:57:40.277Z,99348.99
